^^
Saratoga-Weather Station Historical Data
Daily Summary for May 13, 2022 Units:  Both    English   Metric
Daily Weekly Monthly Yearly Custom
  High: Low: Average:
Temperature: 70 °F /  21.1 °C 52.5 °F /  11.4 °C 61 °F /  16.1 °C
Dew Point: 51.8 °F /  11 °C 42.6 °F /  5.9 °C 46.4 °F /  8 °C
Humidity: 79% 42% 60%
Wind Speed: 14mph /  22.5km/h - 3.7mph /  5.9km/h
Wind Gust: 16mph /  25.7km/h - -
Wind- - West
Pressure: 30.2 in /  1021.3 hPa 30.1 in /  1018.3 hPa -
Precipitation: 0 in /  0.0 mm    
Historical Graphs
 
 
Tabular Data for May 13, 2022
Time Temperature Dew Point Pressure Wind Wind Speed Wind Gust Humidity Rainfall Rate (Hourly) solar
00:04 60.4 °F /  15.8 °C 51.8 °F /  11 °C 30.1in /  1018.3hPa WNW 0.9mph /  1.4km/h 3mph /  4.8km/h 73% 0in /  0.0mm 0 W/m2
00:09 60.3 °F /  15.7 °C 51.6 °F /  10.9 °C 30.1in /  1018.3hPa WNW 2mph /  3.2km/h 3mph /  4.8km/h 73% 0in /  0.0mm 0 W/m2
00:14 60.1 °F /  15.6 °C 51.4 °F /  10.8 °C 30.1in /  1018.3hPa WNW 2mph /  3.2km/h 2mph /  3.2km/h 73% 0in /  0.0mm 0 W/m2
00:19 60.1 °F /  15.6 °C 51.4 °F /  10.8 °C 30.1in /  1018.3hPa WNW 0.9mph /  1.4km/h 3mph /  4.8km/h 73% 0in /  0.0mm 0 W/m2
00:24 59.9 °F /  15.5 °C 51.3 °F /  10.7 °C 30.1in /  1018.6hPa Calm   1mph /  1.6km/h 73% 0in /  0.0mm 0 W/m2
00:29 59.7 °F /  15.4 °C 51.4 °F /  10.8 °C 30.1in /  1018.6hPa Calm   3mph /  4.8km/h 74% 0in /  0.0mm 0 W/m2
00:34 59.7 °F /  15.4 °C 51.4 °F /  10.8 °C 30.1in /  1018.6hPa Calm     74% 0in /  0.0mm 0 W/m2
00:39 59.5 °F /  15.3 °C 51.3 °F /  10.7 °C 30.1in /  1018.6hPa Calm     74% 0in /  0.0mm 0 W/m2
00:44 59.5 °F /  15.3 °C 51.6 °F /  10.9 °C 30.1in /  1018.6hPa Calm     75% 0in /  0.0mm 0 W/m2
00:49 59.4 °F /  15.2 °C 51.4 °F /  10.8 °C 30.1in /  1018.6hPa Calm   1mph /  1.6km/h 75% 0in /  0.0mm 0 W/m2
00:54 59.4 °F /  15.2 °C 51.8 °F /  11 °C 30.1in /  1018.6hPa Calm     76% 0in /  0.0mm 0 W/m2
00:59 59.2 °F /  15.1 °C 51.6 °F /  10.9 °C 30.1in /  1018.6hPa Calm     76% 0in /  0.0mm 0 W/m2
01:04 58.8 °F /  14.9 °C 51.6 °F /  10.9 °C 30.1in /  1018.3hPa Calm     77% 0in /  0.0mm 0 W/m2
01:09 58.8 °F /  14.9 °C 51.6 °F /  10.9 °C 30.1in /  1018.3hPa Calm   1mph /  1.6km/h 77% 0in /  0.0mm 0 W/m2
01:14 58.8 °F /  14.9 °C 51.6 °F /  10.9 °C 30.1in /  1018.3hPa WNW 0.9mph /  1.4km/h 2mph /  3.2km/h 77% 0in /  0.0mm 0 W/m2
01:19 58.8 °F /  14.9 °C 51.3 °F /  10.7 °C 30.1in /  1018.3hPa West 2.9mph /  4.7km/h 3mph /  4.8km/h 76% 0in /  0.0mm 0 W/m2
01:24 58.8 °F /  14.9 °C 51.3 °F /  10.7 °C 30.1in /  1018.6hPa WSW 0.9mph /  1.4km/h 3mph /  4.8km/h 76% 0in /  0.0mm 0 W/m2
01:29 58.8 °F /  14.9 °C 51.3 °F /  10.7 °C 30.1in /  1018.6hPa WSW 0.9mph /  1.4km/h 2mph /  3.2km/h 76% 0in /  0.0mm 0 W/m2
01:34 58.8 °F /  14.9 °C 51.3 °F /  10.7 °C 30.1in /  1018.6hPa WSW 0.9mph /  1.4km/h 3mph /  4.8km/h 76% 0in /  0.0mm 0 W/m2
01:39 58.8 °F /  14.9 °C 51.3 °F /  10.7 °C 30.1in /  1018.6hPa WSW 0.9mph /  1.4km/h 3mph /  4.8km/h 76% 0in /  0.0mm 0 W/m2
01:44 58.6 °F /  14.8 °C 51.1 °F /  10.6 °C 30.1in /  1018.6hPa WSW 0.9mph /  1.4km/h 2mph /  3.2km/h 76% 0in /  0.0mm 0 W/m2
01:49 58.5 °F /  14.7 °C 50.9 °F /  10.5 °C 30.1in /  1018.6hPa WSW 0.9mph /  1.4km/h 3mph /  4.8km/h 76% 0in /  0.0mm 0 W/m2
01:54 58.3 °F /  14.6 °C 50.7 °F /  10.4 °C 30.1in /  1018.6hPa WSW 2mph /  3.2km/h 3mph /  4.8km/h 76% 0in /  0.0mm 0 W/m2
01:59 58.3 °F /  14.6 °C 51.1 °F /  10.6 °C 30.1in /  1018.6hPa West 2mph /  3.2km/h 2mph /  3.2km/h 77% 0in /  0.0mm 0 W/m2
02:04 58.3 °F /  14.6 °C 50.7 °F /  10.4 °C 30.1in /  1018.6hPa West 0.9mph /  1.4km/h 1mph /  1.6km/h 76% 0in /  0.0mm 0 W/m2
02:09 58.3 °F /  14.6 °C 50.7 °F /  10.4 °C 30.1in /  1018.6hPa Calm     76% 0in /  0.0mm 0 W/m2
02:14 58.1 °F /  14.5 °C 50.5 °F /  10.3 °C 30.1in /  1018.6hPa Calm   1mph /  1.6km/h 76% 0in /  0.0mm 0 W/m2
02:19 57.9 °F /  14.4 °C 50.4 °F /  10.2 °C 30.1in /  1018.6hPa West 2mph /  3.2km/h 2mph /  3.2km/h 76% 0in /  0.0mm 0 W/m2
02:24 57.9 °F /  14.4 °C 50.4 °F /  10.2 °C 30.1in /  1018.6hPa WNW 2mph /  3.2km/h 3mph /  4.8km/h 76% 0in /  0.0mm 0 W/m2
02:29 57.9 °F /  14.4 °C 50.4 °F /  10.2 °C 30.1in /  1018.6hPa WNW 0.9mph /  1.4km/h 2mph /  3.2km/h 76% 0in /  0.0mm 0 W/m2
02:34 57.9 °F /  14.4 °C 50.4 °F /  10.2 °C 30.1in /  1019.0hPa WNW 2mph /  3.2km/h 2mph /  3.2km/h 76% 0in /  0.0mm 0 W/m2
02:39 57.9 °F /  14.4 °C 50.4 °F /  10.2 °C 30.1in /  1018.6hPa WNW 0.9mph /  1.4km/h 2mph /  3.2km/h 76% 0in /  0.0mm 0 W/m2
02:44 57.9 °F /  14.4 °C 50.4 °F /  10.2 °C 30.1in /  1018.6hPa WNW 0.9mph /  1.4km/h 2mph /  3.2km/h 76% 0in /  0.0mm 0 W/m2
02:49 57.7 °F /  14.3 °C 50.2 °F /  10.1 °C 30.1in /  1018.6hPa West 0.9mph /  1.4km/h 2mph /  3.2km/h 76% 0in /  0.0mm 0 W/m2
02:54 57.7 °F /  14.3 °C 50.2 °F /  10.1 °C 30.1in /  1018.6hPa Calm   1mph /  1.6km/h 76% 0in /  0.0mm 0 W/m2
02:59 57.6 °F /  14.2 °C 50 °F /  10 °C 30.1in /  1018.6hPa WSW 2mph /  3.2km/h 3mph /  4.8km/h 76% 0in /  0.0mm 0 W/m2
03:04 57.4 °F /  14.1 °C 49.8 °F /  9.9 °C 30.1in /  1018.6hPa West 2mph /  3.2km/h 2mph /  3.2km/h 76% 0in /  0.0mm 0 W/m2
03:09 57.2 °F /  14 °C 49.6 °F /  9.8 °C 30.1in /  1018.6hPa Calm   1mph /  1.6km/h 76% 0in /  0.0mm 0 W/m2
03:14 57 °F /  13.9 °C 49.5 °F /  9.7 °C 30.1in /  1018.6hPa West 2mph /  3.2km/h 2mph /  3.2km/h 76% 0in /  0.0mm 0 W/m2
03:19 56.8 °F /  13.8 °C 49.3 °F /  9.6 °C 30.1in /  1018.6hPa West 2mph /  3.2km/h 2mph /  3.2km/h 76% 0in /  0.0mm 0 W/m2
03:24 56.8 °F /  13.8 °C 49.6 °F /  9.8 °C 30.1in /  1018.6hPa West 2mph /  3.2km/h 3mph /  4.8km/h 77% 0in /  0.0mm 0 W/m2
03:29 56.7 °F /  13.7 °C 49.8 °F /  9.9 °C 30.1in /  1018.6hPa West 0.9mph /  1.4km/h 2mph /  3.2km/h 78% 0in /  0.0mm 0 W/m2
03:34 56.5 °F /  13.6 °C 49.6 °F /  9.8 °C 30.1in /  1018.6hPa West 2mph /  3.2km/h 3mph /  4.8km/h 78% 0in /  0.0mm 0 W/m2
03:39 56.1 °F /  13.4 °C 49.6 °F /  9.8 °C 30.1in /  1019.0hPa West 2mph /  3.2km/h 4mph /  6.4km/h 79% 0in /  0.0mm 0 W/m2
03:44 56.1 °F /  13.4 °C 49.6 °F /  9.8 °C 30.1in /  1019.0hPa West 2mph /  3.2km/h 4mph /  6.4km/h 79% 0in /  0.0mm 0 W/m2
03:49 56.1 °F /  13.4 °C 49.3 °F /  9.6 °C 30.1in /  1018.6hPa West 2.9mph /  4.7km/h 6mph /  9.7km/h 78% 0in /  0.0mm 0 W/m2
03:54 56.1 °F /  13.4 °C 49.3 °F /  9.6 °C 30.1in /  1018.6hPa West 2.9mph /  4.7km/h 3mph /  4.8km/h 78% 0in /  0.0mm 0 W/m2
03:59 56.1 °F /  13.4 °C 48.7 °F /  9.3 °C 30.1in /  1018.6hPa WSW 2mph /  3.2km/h 6mph /  9.7km/h 76% 0in /  0.0mm 0 W/m2
04:04 56.1 °F /  13.4 °C 48.7 °F /  9.3 °C 30.1in /  1018.6hPa West 2.9mph /  4.7km/h 4mph /  6.4km/h 76% 0in /  0.0mm 0 W/m2
04:09 55.9 °F /  13.3 °C 48.6 °F /  9.2 °C 30.1in /  1018.6hPa WSW 4.9mph /  7.9km/h 6mph /  9.7km/h 76% 0in /  0.0mm 0 W/m2
04:14 55.9 °F /  13.3 °C 48.6 °F /  9.2 °C 30.1in /  1019.0hPa West 2.9mph /  4.7km/h 4mph /  6.4km/h 76% 0in /  0.0mm 0 W/m2
04:19 55.8 °F /  13.2 °C 48 °F /  8.9 °C 30.1in /  1018.6hPa West 2mph /  3.2km/h 3mph /  4.8km/h 75% 0in /  0.0mm 0 W/m2
04:24 55.8 °F /  13.2 °C 48.4 °F /  9.1 °C 30.1in /  1019.0hPa West 2.9mph /  4.7km/h 4mph /  6.4km/h 76% 0in /  0.0mm 0 W/m2
04:29 55.8 °F /  13.2 °C 48.4 °F /  9.1 °C 30.1in /  1019.0hPa West 4mph /  6.4km/h 9mph /  14.5km/h 76% 0in /  0.0mm 0 W/m2
04:34 55.9 °F /  13.3 °C 48.2 °F /  9 °C 30.1in /  1019.0hPa WSW 6.9mph /  11.1km/h 9mph /  14.5km/h 75% 0in /  0.0mm 0 W/m2
04:39 55.9 °F /  13.3 °C 48.2 °F /  9 °C 30.1in /  1019.0hPa West 6mph /  9.7km/h 8mph /  12.9km/h 75% 0in /  0.0mm 0 W/m2
04:44 55.8 °F /  13.2 °C 48 °F /  8.9 °C 30.1in /  1019.3hPa West 6.9mph /  11.1km/h 8mph /  12.9km/h 75% 0in /  0.0mm 0 W/m2
04:49 55.6 °F /  13.1 °C 47.1 °F /  8.4 °C 30.1in /  1019.3hPa WSW 8.1mph /  13km/h 10mph /  16.1km/h 73% 0in /  0.0mm 0 W/m2
04:54 55.4 °F /  13 °C 46.6 °F /  8.1 °C 30.1in /  1019.3hPa NNW 8.1mph /  13km/h 13mph /  20.9km/h 72% 0in /  0.0mm 0 W/m2
04:59 55.2 °F /  12.9 °C 46.8 °F /  8.2 °C 30.1in /  1019.3hPa West 4mph /  6.4km/h 8mph /  12.9km/h 73% 0in /  0.0mm 0 W/m2
05:04 55 °F /  12.8 °C 46.2 °F /  7.9 °C 30.1in /  1019.3hPa WNW 8.1mph /  13km/h 13mph /  20.9km/h 72% 0in /  0.0mm 0 W/m2
05:09 54.7 °F /  12.6 °C 45.9 °F /  7.7 °C 30.1in /  1019.0hPa WSW 8.1mph /  13km/h 9mph /  14.5km/h 72% 0in /  0.0mm 0 W/m2
05:14 54.3 °F /  12.4 °C 45.5 °F /  7.5 °C 30.1in /  1019.0hPa WNW 2.9mph /  4.7km/h 11mph /  17.7km/h 72% 0in /  0.0mm 0 W/m2
05:19 54.1 °F /  12.3 °C 45.7 °F /  7.6 °C 30.1in /  1019.0hPa WNW 4mph /  6.4km/h 7mph /  11.3km/h 73% 0in /  0.0mm 0 W/m2
05:24 54 °F /  12.2 °C 45.5 °F /  7.5 °C 30.1in /  1019.0hPa West 2.9mph /  4.7km/h 7mph /  11.3km/h 73% 0in /  0.0mm 0 W/m2
05:29 53.6 °F /  12 °C 45.1 °F /  7.3 °C 30.1in /  1019.0hPa WSW 4.9mph /  7.9km/h 8mph /  12.9km/h 73% 0in /  0.0mm 0 W/m2
05:34 53.2 °F /  11.8 °C 44.8 °F /  7.1 °C 30.1in /  1019.0hPa WNW 4mph /  6.4km/h 8mph /  12.9km/h 73% 0in /  0.0mm 0 W/m2
05:39 53.2 °F /  11.8 °C 45.1 °F /  7.3 °C 30.1in /  1019.0hPa West 4mph /  6.4km/h 7mph /  11.3km/h 74% 0in /  0.0mm 0 W/m2
05:44 53.1 °F /  11.7 °C 45 °F /  7.2 °C 30.1in /  1019.3hPa West 6.9mph /  11.1km/h 7mph /  11.3km/h 74% 0in /  0.0mm 0 W/m2
05:49 52.9 °F /  11.6 °C 44.8 °F /  7.1 °C 30.1in /  1019.3hPa WNW 2.9mph /  4.7km/h 6mph /  9.7km/h 74% 0in /  0.0mm 0 W/m2
05:54 52.7 °F /  11.5 °C 44.6 °F /  7 °C 30.1in /  1019.3hPa WNW 2.9mph /  4.7km/h 5mph /  8km/h 74% 0in /  0.0mm 5 W/m2
05:59 52.5 °F /  11.4 °C 44.4 °F /  6.9 °C 30.1in /  1019.3hPa WSW 4mph /  6.4km/h 7mph /  11.3km/h 74% 0in /  0.0mm 5 W/m2
06:04 52.5 °F /  11.4 °C 44.4 °F /  6.9 °C 30.1in /  1019.3hPa West 2mph /  3.2km/h 7mph /  11.3km/h 74% 0in /  0.0mm 7 W/m2
06:09 52.5 °F /  11.4 °C 44.1 °F /  6.7 °C 30.1in /  1019.3hPa WSW 6mph /  9.7km/h 7mph /  11.3km/h 73% 0in /  0.0mm 11 W/m2
06:14 52.5 °F /  11.4 °C 44.1 °F /  6.7 °C 30.1in /  1019.3hPa West 6mph /  9.7km/h 8mph /  12.9km/h 73% 0in /  0.0mm 12 W/m2
06:19 52.5 °F /  11.4 °C 44.1 °F /  6.7 °C 30.1in /  1019.3hPa WNW 2mph /  3.2km/h 7mph /  11.3km/h 73% 0in /  0.0mm 14 W/m2
06:29 52.7 °F /  11.5 °C 44.2 °F /  6.8 °C 30.1in /  1019.3hPa WSW 4mph /  6.4km/h 5mph /  8km/h 73% 0in /  0.0mm 19 W/m2
06:34 52.9 °F /  11.6 °C 44.4 °F /  6.9 °C 30.1in /  1019.3hPa WSW 4.9mph /  7.9km/h 7mph /  11.3km/h 73% 0in /  0.0mm 19 W/m2
06:39 52.9 °F /  11.6 °C 44.4 °F /  6.9 °C 30.1in /  1019.6hPa West 6.9mph /  11.1km/h 8mph /  12.9km/h 73% 0in /  0.0mm 19 W/m2
06:45 52.9 °F /  11.6 °C 44.4 °F /  6.9 °C 30.1in /  1019.6hPa West 6.9mph /  11.1km/h 7mph /  11.3km/h 73% 0in /  0.0mm 21 W/m2
06:50 52.7 °F /  11.5 °C 44.2 °F /  6.8 °C 30.1in /  1019.6hPa West 4mph /  6.4km/h 6mph /  9.7km/h 73% 0in /  0.0mm 28 W/m2
06:55 52.7 °F /  11.5 °C 44.2 °F /  6.8 °C 30.1in /  1019.6hPa West 2.9mph /  4.7km/h 7mph /  11.3km/h 73% 0in /  0.0mm 30 W/m2
07:00 52.9 °F /  11.6 °C 44.8 °F /  7.1 °C 30.1in /  1019.6hPa NW 2.9mph /  4.7km/h 4mph /  6.4km/h 74% 0in /  0.0mm 32 W/m2
07:05 52.9 °F /  11.6 °C 44.4 °F /  6.9 °C 30.1in /  1019.6hPa NW 2.9mph /  4.7km/h 7mph /  11.3km/h 73% 0in /  0.0mm 35 W/m2
07:10 52.9 °F /  11.6 °C 44.4 °F /  6.9 °C 30.1in /  1019.6hPa WNW 4.9mph /  7.9km/h 7mph /  11.3km/h 73% 0in /  0.0mm 40 W/m2
07:15 52.9 °F /  11.6 °C 44.8 °F /  7.1 °C 30.1in /  1020.0hPa WNW 4mph /  6.4km/h 8mph /  12.9km/h 74% 0in /  0.0mm 44 W/m2
07:20 52.9 °F /  11.6 °C 44.8 °F /  7.1 °C 30.1in /  1020.0hPa West 4mph /  6.4km/h 9mph /  14.5km/h 74% 0in /  0.0mm 40 W/m2
07:25 52.9 °F /  11.6 °C 45.5 °F /  7.5 °C 30.1in /  1020.0hPa West 2.9mph /  4.7km/h 7mph /  11.3km/h 76% 0in /  0.0mm 58 W/m2
07:30 52.7 °F /  11.5 °C 45.3 °F /  7.4 °C 30.1in /  1020.3hPa West 6mph /  9.7km/h 6mph /  9.7km/h 76% 0in /  0.0mm 56 W/m2
07:40 52.5 °F /  11.4 °C 45.5 °F /  7.5 °C 30.1in /  1020.3hPa West 2mph /  3.2km/h 3mph /  4.8km/h 77% 0in /  0.0mm 46 W/m2
07:45 52.5 °F /  11.4 °C 45.1 °F /  7.3 °C 30.1in /  1020.3hPa West 2.9mph /  4.7km/h 8mph /  12.9km/h 76% 0in /  0.0mm 47 W/m2
07:50 52.5 °F /  11.4 °C 45.1 °F /  7.3 °C 30.1in /  1020.7hPa West 2.9mph /  4.7km/h 4mph /  6.4km/h 76% 0in /  0.0mm 54 W/m2
07:55 52.5 °F /  11.4 °C 45.1 °F /  7.3 °C 30.1in /  1020.7hPa West 2.9mph /  4.7km/h 7mph /  11.3km/h 76% 0in /  0.0mm 47 W/m2
08:00 52.9 °F /  11.6 °C 45.1 °F /  7.3 °C 30.1in /  1020.7hPa West 2mph /  3.2km/h 7mph /  11.3km/h 75% 0in /  0.0mm 163 W/m2
08:05 53.1 °F /  11.7 °C 45 °F /  7.2 °C 30.1in /  1020.7hPa NNW 4.9mph /  7.9km/h 6mph /  9.7km/h 74% 0in /  0.0mm 84 W/m2
08:10 53.2 °F /  11.8 °C 44.4 °F /  6.9 °C 30.1in /  1020.7hPa WNW 2.9mph /  4.7km/h 6mph /  9.7km/h 72% 0in /  0.0mm 84 W/m2
08:15 53.4 °F /  11.9 °C 43.9 °F /  6.6 °C 30.1in /  1020.7hPa WNW 0.9mph /  1.4km/h 4mph /  6.4km/h 70% 0in /  0.0mm 95 W/m2
08:20 53.8 °F /  12.1 °C 44.2 °F /  6.8 °C 30.1in /  1020.7hPa WNW 0.9mph /  1.4km/h 3mph /  4.8km/h 70% 0in /  0.0mm 91 W/m2
08:25 54 °F /  12.2 °C 43.7 °F /  6.5 °C 30.2in /  1021.0hPa NW 0.9mph /  1.4km/h 5mph /  8km/h 68% 0in /  0.0mm 91 W/m2
08:30 54.1 °F /  12.3 °C 43.3 °F /  6.3 °C 30.2in /  1021.0hPa NW 2mph /  3.2km/h 8mph /  12.9km/h 67% 0in /  0.0mm 69 W/m2
08:35 54.1 °F /  12.3 °C 43.3 °F /  6.3 °C 30.2in /  1021.0hPa West 2mph /  3.2km/h 8mph /  12.9km/h 67% 0in /  0.0mm 53 W/m2
08:40 54.5 °F /  12.5 °C 44.2 °F /  6.8 °C 30.2in /  1021.0hPa West 4mph /  6.4km/h 5mph /  8km/h 68% 0in /  0.0mm 58 W/m2
08:45 54.9 °F /  12.7 °C 44.1 °F /  6.7 °C 30.2in /  1021.0hPa WNW 4mph /  6.4km/h 6mph /  9.7km/h 67% 0in /  0.0mm 62 W/m2
08:50 55.2 °F /  12.9 °C 43.7 °F /  6.5 °C 30.2in /  1021.0hPa WNW 2mph /  3.2km/h 8mph /  12.9km/h 65% 0in /  0.0mm 65 W/m2
08:55 55.8 °F /  13.2 °C 44.6 °F /  7 °C 30.2in /  1021.0hPa WNW 4mph /  6.4km/h 4mph /  6.4km/h 66% 0in /  0.0mm 58 W/m2
09:00 55.9 °F /  13.3 °C 44.4 °F /  6.9 °C 30.2in /  1021.3hPa NW 2.9mph /  4.7km/h 8mph /  12.9km/h 65% 0in /  0.0mm 65 W/m2
09:05 56.1 °F /  13.4 °C 44.6 °F /  7 °C 30.2in /  1021.3hPa WNW 2mph /  3.2km/h 4mph /  6.4km/h 65% 0in /  0.0mm 91 W/m2
09:10 56.3 °F /  13.5 °C 43.9 °F /  6.6 °C 30.2in /  1021.3hPa WNW 2.9mph /  4.7km/h 7mph /  11.3km/h 63% 0in /  0.0mm 135 W/m2
09:15 56.3 °F /  13.5 °C 44.2 °F /  6.8 °C 30.2in /  1021.3hPa WNW 2.9mph /  4.7km/h 4mph /  6.4km/h 64% 0in /  0.0mm 104 W/m2
09:20 56.5 °F /  13.6 °C 44.1 °F /  6.7 °C 30.2in /  1021.3hPa NW 4.9mph /  7.9km/h 6mph /  9.7km/h 63% 0in /  0.0mm 69 W/m2
09:25 56.8 °F /  13.8 °C 44.4 °F /  6.9 °C 30.2in /  1021.3hPa NNW 4mph /  6.4km/h 5mph /  8km/h 63% 0in /  0.0mm 54 W/m2
09:30 57.6 °F /  14.2 °C 43.7 °F /  6.5 °C 30.2in /  1021.3hPa WNW 2mph /  3.2km/h 8mph /  12.9km/h 60% 0in /  0.0mm 53 W/m2
09:35 57.9 °F /  14.4 °C 44.1 °F /  6.7 °C 30.2in /  1021.3hPa WSW 4mph /  6.4km/h 6mph /  9.7km/h 60% 0in /  0.0mm 53 W/m2
09:40 58.3 °F /  14.6 °C 44.1 °F /  6.7 °C 30.2in /  1021.3hPa NW 2.9mph /  4.7km/h 7mph /  11.3km/h 59% 0in /  0.0mm 53 W/m2
09:45 58.6 °F /  14.8 °C 44.4 °F /  6.9 °C 30.2in /  1021.3hPa WNW 4mph /  6.4km/h 4mph /  6.4km/h 59% 0in /  0.0mm 54 W/m2
09:50 59 °F /  15 °C 44.2 °F /  6.8 °C 30.2in /  1021.0hPa WNW 4.9mph /  7.9km/h 7mph /  11.3km/h 58% 0in /  0.0mm 53 W/m2
09:55 59.2 °F /  15.1 °C 44.4 °F /  6.9 °C 30.2in /  1021.0hPa NW 2.9mph /  4.7km/h 6mph /  9.7km/h 58% 0in /  0.0mm 56 W/m2
10:00 59.4 °F /  15.2 °C 44.6 °F /  7 °C 30.2in /  1021.0hPa West 8.1mph /  13km/h 9mph /  14.5km/h 58% 0in /  0.0mm 265 W/m2
10:05 59.4 °F /  15.2 °C 44.6 °F /  7 °C 30.2in /  1021.0hPa NE 2.9mph /  4.7km/h 9mph /  14.5km/h 58% 0in /  0.0mm 577 W/m2
10:10 59.5 °F /  15.3 °C 44.8 °F /  7.1 °C 30.2in /  1021.0hPa SW 4mph /  6.4km/h 6mph /  9.7km/h 58% 0in /  0.0mm 592 W/m2
10:15 59.9 °F /  15.5 °C 45.1 °F /  7.3 °C 30.2in /  1021.0hPa West 8.1mph /  13km/h 10mph /  16.1km/h 58% 0in /  0.0mm 606 W/m2
10:20 59.7 °F /  15.4 °C 43.5 °F /  6.4 °C 30.2in /  1021.0hPa WSW 2.9mph /  4.7km/h 10mph /  16.1km/h 55% 0in /  0.0mm 619 W/m2
10:25 59.7 °F /  15.4 °C 44.1 °F /  6.7 °C 30.2in /  1021.0hPa WNW 2mph /  3.2km/h 8mph /  12.9km/h 56% 0in /  0.0mm 635 W/m2
10:30 60.1 °F /  15.6 °C 43.3 °F /  6.3 °C 30.2in /  1021.0hPa WSW 6.9mph /  11.1km/h 10mph /  16.1km/h 54% 0in /  0.0mm 649 W/m2
10:35 60.4 °F /  15.8 °C 43.2 °F /  6.2 °C 30.2in /  1021.3hPa WNW 6mph /  9.7km/h 8mph /  12.9km/h 53% 0in /  0.0mm 664 W/m2
10:40 60.3 °F /  15.7 °C 44.1 °F /  6.7 °C 30.2in /  1021.3hPa NW 6mph /  9.7km/h 8mph /  12.9km/h 55% 0in /  0.0mm 677 W/m2
10:45 60.4 °F /  15.8 °C 44.2 °F /  6.8 °C 30.2in /  1021.0hPa North 4.9mph /  7.9km/h 9mph /  14.5km/h 55% 0in /  0.0mm 687 W/m2
10:50 60.6 °F /  15.9 °C 44.4 °F /  6.9 °C 30.2in /  1021.0hPa West 2.9mph /  4.7km/h 11mph /  17.7km/h 55% 0in /  0.0mm 698 W/m2
10:55 61.2 °F /  16.2 °C 44.8 °F /  7.1 °C 30.2in /  1021.0hPa WSW 4mph /  6.4km/h 8mph /  12.9km/h 55% 0in /  0.0mm 710 W/m2
11:00 61.5 °F /  16.4 °C 44.8 °F /  7.1 °C 30.2in /  1021.0hPa NNW 2mph /  3.2km/h 6mph /  9.7km/h 54% 0in /  0.0mm 717 W/m2
11:05 61.9 °F /  16.6 °C 45.1 °F /  7.3 °C 30.2in /  1021.0hPa West 6mph /  9.7km/h 8mph /  12.9km/h 54% 0in /  0.0mm 731 W/m2
11:10 61.9 °F /  16.6 °C 44.1 °F /  6.7 °C 30.2in /  1021.0hPa WNW 4mph /  6.4km/h 9mph /  14.5km/h 52% 0in /  0.0mm 742 W/m2
11:15 61.9 °F /  16.6 °C 43.5 °F /  6.4 °C 30.2in /  1021.0hPa West 2.9mph /  4.7km/h 14mph /  22.5km/h 51% 0in /  0.0mm 754 W/m2
11:20 61.5 °F /  16.4 °C 42.6 °F /  5.9 °C 30.2in /  1021.0hPa WNW 4mph /  6.4km/h 14mph /  22.5km/h 50% 0in /  0.0mm 768 W/m2
11:25 62.1 °F /  16.7 °C 43.7 °F /  6.5 °C 30.2in /  1021.3hPa SW 4mph /  6.4km/h 9mph /  14.5km/h 51% 0in /  0.0mm 779 W/m2
11:30 62.1 °F /  16.7 °C 43.7 °F /  6.5 °C 30.2in /  1021.3hPa NNW 10.1mph /  16.3km/h 14mph /  22.5km/h 51% 0in /  0.0mm 789 W/m2
11:35 61.9 °F /  16.6 °C 43.5 °F /  6.4 °C 30.2in /  1021.3hPa SSW 4.9mph /  7.9km/h 14mph /  22.5km/h 51% 0in /  0.0mm 802 W/m2
11:40 61.9 °F /  16.6 °C 43 °F /  6.1 °C 30.2in /  1021.3hPa West 8.9mph /  14.3km/h 14mph /  22.5km/h 50% 0in /  0.0mm 809 W/m2
11:45 62.2 °F /  16.8 °C 43.9 °F /  6.6 °C 30.2in /  1021.3hPa WNW 4mph /  6.4km/h 14mph /  22.5km/h 51% 0in /  0.0mm 816 W/m2
11:50 62.4 °F /  16.9 °C 43.5 °F /  6.4 °C 30.2in /  1021.0hPa West 8.1mph /  13km/h 10mph /  16.1km/h 50% 0in /  0.0mm 828 W/m2
11:56 62.8 °F /  17.1 °C 43.9 °F /  6.6 °C 30.2in /  1021.0hPa WNW 2.9mph /  4.7km/h 11mph /  17.7km/h 50% 0in /  0.0mm 833 W/m2
12:01 63.3 °F /  17.4 °C 45 °F /  7.2 °C 30.2in /  1021.0hPa West 10.1mph /  16.3km/h 10mph /  16.1km/h 51% 0in /  0.0mm 844 W/m2
12:06 63.1 °F /  17.3 °C 43.7 °F /  6.5 °C 30.2in /  1021.0hPa NW 8.1mph /  13km/h 14mph /  22.5km/h 49% 0in /  0.0mm 846 W/m2
12:11 63.7 °F /  17.6 °C 44.2 °F /  6.8 °C 30.2in /  1021.0hPa WNW 4.9mph /  7.9km/h 10mph /  16.1km/h 49% 0in /  0.0mm 849 W/m2
12:16 63.7 °F /  17.6 °C 44.2 °F /  6.8 °C 30.2in /  1021.0hPa WNW 4.9mph /  7.9km/h 9mph /  14.5km/h 49% 0in /  0.0mm 861 W/m2
12:21 63.9 °F /  17.7 °C 44.2 °F /  6.8 °C 30.2in /  1021.0hPa SW 4mph /  6.4km/h 12mph /  19.3km/h 49% 0in /  0.0mm 868 W/m2
12:26 64 °F /  17.8 °C 43.9 °F /  6.6 °C 30.2in /  1021.0hPa WNW 6.9mph /  11.1km/h 10mph /  16.1km/h 48% 0in /  0.0mm 874 W/m2
12:31 64.4 °F /  18 °C 44.2 °F /  6.8 °C 30.2in /  1021.0hPa NW 8.1mph /  13km/h 11mph /  17.7km/h 48% 0in /  0.0mm 877 W/m2
12:36 64 °F /  17.8 °C 43.9 °F /  6.6 °C 30.2in /  1021.0hPa West 6.9mph /  11.1km/h 16mph /  25.7km/h 48% 0in /  0.0mm 886 W/m2
12:41 64 °F /  17.8 °C 43.9 °F /  6.6 °C 30.2in /  1021.0hPa North 2.9mph /  4.7km/h 10mph /  16.1km/h 48% 0in /  0.0mm 888 W/m2
12:46 64.2 °F /  17.9 °C 44.1 °F /  6.7 °C 30.2in /  1021.0hPa WNW 6mph /  9.7km/h 16mph /  25.7km/h 48% 0in /  0.0mm 891 W/m2
12:51 64.2 °F /  17.9 °C 44.6 °F /  7 °C 30.2in /  1021.0hPa WNW 8.9mph /  14.3km/h 10mph /  16.1km/h 49% 0in /  0.0mm 889 W/m2
12:56 64.4 °F /  18 °C 44.8 °F /  7.1 °C 30.2in /  1021.0hPa NW 4.9mph /  7.9km/h 10mph /  16.1km/h 49% 0in /  0.0mm 893 W/m2
13:01 64.8 °F /  18.2 °C 45.1 °F /  7.3 °C 30.2in /  1021.0hPa WNW 4.9mph /  7.9km/h 11mph /  17.7km/h 49% 0in /  0.0mm 891 W/m2
13:06 64.9 °F /  18.3 °C 43.7 °F /  6.5 °C 30.2in /  1021.0hPa West 11mph /  17.7km/h 14mph /  22.5km/h 46% 0in /  0.0mm 900 W/m2
13:11 64.8 °F /  18.2 °C 44.1 °F /  6.7 °C 30.2in /  1021.0hPa NW 6.9mph /  11.1km/h 9mph /  14.5km/h 47% 0in /  0.0mm 896 W/m2
13:16 65.1 °F /  18.4 °C 45 °F /  7.2 °C 30.1in /  1020.7hPa West 14mph /  22.5km/h 14mph /  22.5km/h 48% 0in /  0.0mm 896 W/m2
13:21 65.3 °F /  18.5 °C 44.6 °F /  7 °C 30.1in /  1020.7hPa WNW 6.9mph /  11.1km/h 11mph /  17.7km/h 47% 0in /  0.0mm 898 W/m2
13:26 65.5 °F /  18.6 °C 44.8 °F /  7.1 °C 30.1in /  1020.7hPa NW 2.9mph /  4.7km/h 9mph /  14.5km/h 47% 0in /  0.0mm 902 W/m2
13:31 65.8 °F /  18.8 °C 45 °F /  7.2 °C 30.1in /  1020.7hPa West 6.9mph /  11.1km/h 13mph /  20.9km/h 47% 0in /  0.0mm 898 W/m2
13:36 65.5 °F /  18.6 °C 45.3 °F /  7.4 °C 30.1in /  1020.7hPa NNW 6mph /  9.7km/h 10mph /  16.1km/h 48% 0in /  0.0mm 900 W/m2
13:41 65.7 °F /  18.7 °C 45.5 °F /  7.5 °C 30.1in /  1020.7hPa West 10.1mph /  16.3km/h 11mph /  17.7km/h 48% 0in /  0.0mm 902 W/m2
13:46 65.7 °F /  18.7 °C 43.7 °F /  6.5 °C 30.1in /  1020.7hPa NW 8.1mph /  13km/h 10mph /  16.1km/h 45% 0in /  0.0mm 904 W/m2
13:51 65.7 °F /  18.7 °C 44.2 °F /  6.8 °C 30.1in /  1020.7hPa West 2mph /  3.2km/h 10mph /  16.1km/h 46% 0in /  0.0mm 902 W/m2
13:56 65.8 °F /  18.8 °C 44.4 °F /  6.9 °C 30.1in /  1020.7hPa WNW 10.1mph /  16.3km/h 10mph /  16.1km/h 46% 0in /  0.0mm 902 W/m2
14:01 65.8 °F /  18.8 °C 43.9 °F /  6.6 °C 30.1in /  1020.7hPa West 2.9mph /  4.7km/h 9mph /  14.5km/h 45% 0in /  0.0mm 902 W/m2
14:06 65.8 °F /  18.8 °C 43.9 °F /  6.6 °C 30.1in /  1020.7hPa NNW 8.9mph /  14.3km/h 10mph /  16.1km/h 45% 0in /  0.0mm 898 W/m2
14:11 66.2 °F /  19 °C 44.2 °F /  6.8 °C 30.1in /  1020.7hPa WSW 11mph /  17.7km/h 12mph /  19.3km/h 45% 0in /  0.0mm 896 W/m2
14:16 66.4 °F /  19.1 °C 45 °F /  7.2 °C 30.1in /  1020.7hPa WSW 11mph /  17.7km/h 11mph /  17.7km/h 46% 0in /  0.0mm 898 W/m2
14:21 66.9 °F /  19.4 °C 44.2 °F /  6.8 °C 30.1in /  1020.7hPa NW 8.1mph /  13km/h 11mph /  17.7km/h 44% 0in /  0.0mm 896 W/m2
14:26 66.7 °F /  19.3 °C 45.3 °F /  7.4 °C 30.1in /  1020.7hPa SW 4.9mph /  7.9km/h 8mph /  12.9km/h 46% 0in /  0.0mm 893 W/m2
14:31 66.7 °F /  19.3 °C 45.3 °F /  7.4 °C 30.1in /  1020.7hPa WSW 4.9mph /  7.9km/h 11mph /  17.7km/h 46% 0in /  0.0mm 895 W/m2
14:36 66.9 °F /  19.4 °C 45.5 °F /  7.5 °C 30.1in /  1020.7hPa North 8.1mph /  13km/h 11mph /  17.7km/h 46% 0in /  0.0mm 893 W/m2
14:41 66.9 °F /  19.4 °C 45 °F /  7.2 °C 30.1in /  1020.7hPa NW 4mph /  6.4km/h 12mph /  19.3km/h 45% 0in /  0.0mm 893 W/m2
14:46 66.7 °F /  19.3 °C 44.8 °F /  7.1 °C 30.1in /  1020.3hPa West 2.9mph /  4.7km/h 11mph /  17.7km/h 45% 0in /  0.0mm 888 W/m2
14:51 67.1 °F /  19.5 °C 45.7 °F /  7.6 °C 30.1in /  1020.3hPa WSW 8.1mph /  13km/h 14mph /  22.5km/h 46% 0in /  0.0mm 886 W/m2
14:56 67.3 °F /  19.6 °C 46.9 °F /  8.3 °C 30.1in /  1020.3hPa WSW 2mph /  3.2km/h 4mph /  6.4km/h 48% 0in /  0.0mm 877 W/m2
15:01 67.8 °F /  19.9 °C 46.9 °F /  8.3 °C 30.1in /  1020.3hPa West 6mph /  9.7km/h 10mph /  16.1km/h 47% 0in /  0.0mm 872 W/m2
15:06 68 °F /  20 °C 46.4 °F /  8 °C 30.1in /  1020.7hPa NNW 8.1mph /  13km/h 9mph /  14.5km/h 46% 0in /  0.0mm 872 W/m2
15:11 68 °F /  20 °C 45.9 °F /  7.7 °C 30.1in /  1020.3hPa WNW 6.9mph /  11.1km/h 14mph /  22.5km/h 45% 0in /  0.0mm 865 W/m2
15:16 67.8 °F /  19.9 °C 46.2 °F /  7.9 °C 30.1in /  1020.3hPa WNW 4mph /  6.4km/h 5mph /  8km/h 46% 0in /  0.0mm 856 W/m2
15:21 68.4 °F /  20.2 °C 46.2 °F /  7.9 °C 30.1in /  1020.3hPa West 2.9mph /  4.7km/h 14mph /  22.5km/h 45% 0in /  0.0mm 849 W/m2
15:26 68.7 °F /  20.4 °C 45.3 °F /  7.4 °C 30.1in /  1020.3hPa WNW 11mph /  17.7km/h 12mph /  19.3km/h 43% 0in /  0.0mm 842 W/m2
15:31 68.7 °F /  20.4 °C 45.3 °F /  7.4 °C 30.1in /  1020.3hPa NNW 8.9mph /  14.3km/h 9mph /  14.5km/h 43% 0in /  0.0mm 837 W/m2
15:36 68.2 °F /  20.1 °C 45.5 °F /  7.5 °C 30.1in /  1020.3hPa WNW 6.9mph /  11.1km/h 12mph /  19.3km/h 44% 0in /  0.0mm 826 W/m2
15:41 68.2 °F /  20.1 °C 46.6 °F /  8.1 °C 30.1in /  1020.0hPa WNW 4mph /  6.4km/h 6mph /  9.7km/h 46% 0in /  0.0mm 821 W/m2
15:46 68.9 °F /  20.5 °C 45.5 °F /  7.5 °C 30.1in /  1020.0hPa NW 6.9mph /  11.1km/h 16mph /  25.7km/h 43% 0in /  0.0mm 812 W/m2
15:51 68.7 °F /  20.4 °C 45.3 °F /  7.4 °C 30.1in /  1020.0hPa WSW 4mph /  6.4km/h 10mph /  16.1km/h 43% 0in /  0.0mm 800 W/m2
15:56 69.1 °F /  20.6 °C 46.2 °F /  7.9 °C 30.1in /  1020.0hPa WNW 6.9mph /  11.1km/h 16mph /  25.7km/h 44% 0in /  0.0mm 788 W/m2
16:01 69.1 °F /  20.6 °C 45.7 °F /  7.6 °C 30.1in /  1020.0hPa WSW 6.9mph /  11.1km/h 10mph /  16.1km/h 43% 0in /  0.0mm 780 W/m2
16:06 69.1 °F /  20.6 °C 46.2 °F /  7.9 °C 30.1in /  1020.0hPa West 11mph /  17.7km/h 12mph /  19.3km/h 44% 0in /  0.0mm 768 W/m2
16:11 68.5 °F /  20.3 °C 45.7 °F /  7.6 °C 30.1in /  1020.0hPa WNW 4mph /  6.4km/h 11mph /  17.7km/h 44% 0in /  0.0mm 761 W/m2
16:16 68.7 °F /  20.4 °C 45.3 °F /  7.4 °C 30.1in /  1020.0hPa WSW 6mph /  9.7km/h 7mph /  11.3km/h 43% 0in /  0.0mm 751 W/m2
16:21 68.9 °F /  20.5 °C 46 °F /  7.8 °C 30.1in /  1020.0hPa WNW 11mph /  17.7km/h 11mph /  17.7km/h 44% 0in /  0.0mm 738 W/m2
16:26 69.1 °F /  20.6 °C 46.2 °F /  7.9 °C 30.1in /  1020.0hPa WSW 4.9mph /  7.9km/h 9mph /  14.5km/h 44% 0in /  0.0mm 733 W/m2
16:31 69.1 °F /  20.6 °C 46.2 °F /  7.9 °C 30.1in /  1020.0hPa West 8.9mph /  14.3km/h 9mph /  14.5km/h 44% 0in /  0.0mm 717 W/m2
16:36 69.1 °F /  20.6 °C 46.8 °F /  8.2 °C 30.1in /  1020.0hPa NNW 4mph /  6.4km/h 12mph /  19.3km/h 45% 0in /  0.0mm 708 W/m2
16:41 69.1 °F /  20.6 °C 46.2 °F /  7.9 °C 30.1in /  1020.0hPa West 6.9mph /  11.1km/h 11mph /  17.7km/h 44% 0in /  0.0mm 705 W/m2
16:46 69.3 °F /  20.7 °C 46.4 °F /  8 °C 30.1in /  1020.0hPa NW 4.9mph /  7.9km/h 12mph /  19.3km/h 44% 0in /  0.0mm 693 W/m2
16:51 69.1 °F /  20.6 °C 46.8 °F /  8.2 °C 30.1in /  1020.0hPa WNW 4mph /  6.4km/h 7mph /  11.3km/h 45% 0in /  0.0mm 679 W/m2
16:56 69.4 °F /  20.8 °C 46.6 °F /  8.1 °C 30.1in /  1020.0hPa West 6mph /  9.7km/h 7mph /  11.3km/h 44% 0in /  0.0mm 666 W/m2
17:01 69.4 °F /  20.8 °C 46 °F /  7.8 °C 30.1in /  1020.0hPa WNW 4.9mph /  7.9km/h 11mph /  17.7km/h 43% 0in /  0.0mm 659 W/m2
17:06 69.6 °F /  20.9 °C 46.2 °F /  7.9 °C 30.1in /  1020.0hPa WSW 4mph /  6.4km/h 7mph /  11.3km/h 43% 0in /  0.0mm 647 W/m2
17:11 69.6 °F /  20.9 °C 45.5 °F /  7.5 °C 30.1in /  1020.0hPa SW 6.9mph /  11.1km/h 9mph /  14.5km/h 42% 0in /  0.0mm 629 W/m2
17:16 69.3 °F /  20.7 °C 46.4 °F /  8 °C 30.1in /  1020.0hPa West 4mph /  6.4km/h 9mph /  14.5km/h 44% 0in /  0.0mm 617 W/m2
17:21 69.3 °F /  20.7 °C 45.9 °F /  7.7 °C 30.1in /  1019.6hPa WSW 2.9mph /  4.7km/h 10mph /  16.1km/h 43% 0in /  0.0mm 606 W/m2
17:26 69.3 °F /  20.7 °C 46.4 °F /  8 °C 30.1in /  1020.0hPa NW 4.9mph /  7.9km/h 8mph /  12.9km/h 44% 0in /  0.0mm 591 W/m2
17:31 69.4 °F /  20.8 °C 47.1 °F /  8.4 °C 30.1in /  1020.0hPa WSW 0.9mph /  1.4km/h 10mph /  16.1km/h 45% 0in /  0.0mm 577 W/m2
17:41 70 °F /  21.1 °C 47.7 °F /  8.7 °C 30.1in /  1019.6hPa WSW 8.1mph /  13km/h 8mph /  12.9km/h 45% 0in /  0.0mm 559 W/m2
17:46 70 °F /  21.1 °C 47.7 °F /  8.7 °C 30.1in /  1019.6hPa SSW 4mph /  6.4km/h 4mph /  6.4km/h 45% 0in /  0.0mm 538 W/m2
17:51 70 °F /  21.1 °C 46.4 °F /  8 °C 30.1in /  1020.0hPa WSW 2mph /  3.2km/h 8mph /  12.9km/h 43% 0in /  0.0mm 522 W/m2
17:56 70 °F /  21.1 °C 47.1 °F /  8.4 °C 30.1in /  1020.0hPa West 2mph /  3.2km/h 8mph /  12.9km/h 44% 0in /  0.0mm 506 W/m2
18:01 70 °F /  21.1 °C 47.7 °F /  8.7 °C 30.1in /  1020.0hPa WNW 8.1mph /  13km/h 8mph /  12.9km/h 45% 0in /  0.0mm 494 W/m2
18:06 69.8 °F /  21 °C 46.9 °F /  8.3 °C 30.1in /  1020.0hPa WSW 2.9mph /  4.7km/h 11mph /  17.7km/h 44% 0in /  0.0mm 476 W/m2
18:11 69.4 °F /  20.8 °C 47.1 °F /  8.4 °C 30.1in /  1020.0hPa WNW 2.9mph /  4.7km/h 8mph /  12.9km/h 45% 0in /  0.0mm 464 W/m2
18:16 69.6 °F /  20.9 °C 47.3 °F /  8.5 °C 30.1in /  1020.0hPa NW 2.9mph /  4.7km/h 11mph /  17.7km/h 45% 0in /  0.0mm 450 W/m2
18:21 70 °F /  21.1 °C 47.1 °F /  8.4 °C 30.1in /  1020.0hPa West 6mph /  9.7km/h 11mph /  17.7km/h 44% 0in /  0.0mm 432 W/m2
18:26 70 °F /  21.1 °C 46.4 °F /  8 °C 30.1in /  1020.0hPa NW 8.9mph /  14.3km/h 10mph /  16.1km/h 43% 0in /  0.0mm 417 W/m2
18:31 69.4 °F /  20.8 °C 46 °F /  7.8 °C 30.1in /  1020.0hPa WNW 4.9mph /  7.9km/h 11mph /  17.7km/h 43% 0in /  0.0mm 403 W/m2
18:36 69.4 °F /  20.8 °C 46.6 °F /  8.1 °C 30.1in /  1020.0hPa WNW 4.9mph /  7.9km/h 6mph /  9.7km/h 44% 0in /  0.0mm 374 W/m2
18:41 69.4 °F /  20.8 °C 46.6 °F /  8.1 °C 30.1in /  1020.0hPa West 4mph /  6.4km/h 8mph /  12.9km/h 44% 0in /  0.0mm 62 W/m2
18:46 69.3 °F /  20.7 °C 46.4 °F /  8 °C 30.1in /  1020.0hPa WSW 8.9mph /  14.3km/h 9mph /  14.5km/h 44% 0in /  0.0mm 62 W/m2
18:51 69.3 °F /  20.7 °C 46.4 °F /  8 °C 30.1in /  1020.0hPa NW 4mph /  6.4km/h 8mph /  12.9km/h 44% 0in /  0.0mm 60 W/m2
18:56 69.1 °F /  20.6 °C 46.2 °F /  7.9 °C 30.1in /  1020.0hPa WNW 2.9mph /  4.7km/h 9mph /  14.5km/h 44% 0in /  0.0mm 60 W/m2
19:01 68.7 °F /  20.4 °C 45.9 °F /  7.7 °C 30.1in /  1020.0hPa WSW 4.9mph /  7.9km/h 7mph /  11.3km/h 44% 0in /  0.0mm 58 W/m2
19:06 68.9 °F /  20.5 °C 46.8 °F /  8.2 °C 30.1in /  1020.0hPa West 6mph /  9.7km/h 6mph /  9.7km/h 45% 0in /  0.0mm 56 W/m2
19:11 68.9 °F /  20.5 °C 46.8 °F /  8.2 °C 30.1in /  1020.0hPa West 6mph /  9.7km/h 7mph /  11.3km/h 45% 0in /  0.0mm 54 W/m2
19:16 68.7 °F /  20.4 °C 45.9 °F /  7.7 °C 30.1in /  1020.0hPa WSW 4.9mph /  7.9km/h 7mph /  11.3km/h 44% 0in /  0.0mm 53 W/m2
19:21 68.4 °F /  20.2 °C 46.2 °F /  7.9 °C 30.1in /  1020.0hPa WSW 4mph /  6.4km/h 8mph /  12.9km/h 45% 0in /  0.0mm 51 W/m2
19:26 68.2 °F /  20.1 °C 46 °F /  7.8 °C 30.1in /  1020.0hPa NW 2.9mph /  4.7km/h 5mph /  8km/h 45% 0in /  0.0mm 49 W/m2
19:31 68.2 °F /  20.1 °C 46.6 °F /  8.1 °C 30.1in /  1020.0hPa West 4mph /  6.4km/h 6mph /  9.7km/h 46% 0in /  0.0mm 47 W/m2
19:36 67.8 °F /  19.9 °C 46.2 °F /  7.9 °C 30.1in /  1020.0hPa West 2.9mph /  4.7km/h 9mph /  14.5km/h 46% 0in /  0.0mm 46 W/m2
19:41 67.8 °F /  19.9 °C 46.2 °F /  7.9 °C 30.1in /  1020.0hPa NNE 4.9mph /  7.9km/h 9mph /  14.5km/h 46% 0in /  0.0mm 44 W/m2
19:46 67.5 °F /  19.7 °C 46 °F /  7.8 °C 30.1in /  1020.0hPa WSW 4.9mph /  7.9km/h 10mph /  16.1km/h 46% 0in /  0.0mm 42 W/m2
19:51 67.5 °F /  19.7 °C 46.6 °F /  8.1 °C 30.1in /  1020.0hPa WSW 4mph /  6.4km/h 4mph /  6.4km/h 47% 0in /  0.0mm 39 W/m2
19:56 67.3 °F /  19.6 °C 45.9 °F /  7.7 °C 30.1in /  1020.0hPa WNW 2mph /  3.2km/h 5mph /  8km/h 46% 0in /  0.0mm 37 W/m2
20:01 66.9 °F /  19.4 °C 46 °F /  7.8 °C 30.1in /  1020.0hPa West 2.9mph /  4.7km/h 4mph /  6.4km/h 47% 0in /  0.0mm 62 W/m2
20:06 66.6 °F /  19.2 °C 45.7 °F /  7.6 °C 30.1in /  1020.0hPa WSW 2.9mph /  4.7km/h 6mph /  9.7km/h 47% 0in /  0.0mm 54 W/m2
20:11 66.2 °F /  19 °C 46.4 °F /  8 °C 30.1in /  1020.0hPa WSW 2.9mph /  4.7km/h 4mph /  6.4km/h 49% 0in /  0.0mm 30 W/m2
20:16 65.8 °F /  18.8 °C 46.8 °F /  8.2 °C 30.1in /  1020.0hPa West 2mph /  3.2km/h 4mph /  6.4km/h 50% 0in /  0.0mm 28 W/m2
20:21 65.5 °F /  18.6 °C 46.9 °F /  8.3 °C 30.1in /  1020.0hPa West 2.9mph /  4.7km/h 4mph /  6.4km/h 51% 0in /  0.0mm 26 W/m2
20:26 65.1 °F /  18.4 °C 47.1 °F /  8.4 °C 30.1in /  1020.0hPa WNW 2mph /  3.2km/h 3mph /  4.8km/h 52% 0in /  0.0mm 23 W/m2
20:31 64.8 °F /  18.2 °C 46.8 °F /  8.2 °C 30.1in /  1020.0hPa WNW 2.9mph /  4.7km/h 4mph /  6.4km/h 52% 0in /  0.0mm 19 W/m2
20:36 64.6 °F /  18.1 °C 47.1 °F /  8.4 °C 30.1in /  1020.0hPa West 2mph /  3.2km/h 6mph /  9.7km/h 53% 0in /  0.0mm 18 W/m2
20:41 64.2 °F /  17.9 °C 47.3 °F /  8.5 °C 30.1in /  1020.0hPa WNW 2mph /  3.2km/h 4mph /  6.4km/h 54% 0in /  0.0mm 16 W/m2
20:46 64 °F /  17.8 °C 47.1 °F /  8.4 °C 30.1in /  1020.0hPa West 2mph /  3.2km/h 6mph /  9.7km/h 54% 0in /  0.0mm 14 W/m2
20:51 63.7 °F /  17.6 °C 47.3 °F /  8.5 °C 30.1in /  1020.0hPa WSW 2.9mph /  4.7km/h 3mph /  4.8km/h 55% 0in /  0.0mm 12 W/m2
20:56 63.3 °F /  17.4 °C 46.9 °F /  8.3 °C 30.1in /  1020.0hPa WNW 2mph /  3.2km/h 3mph /  4.8km/h 55% 0in /  0.0mm 9 W/m2
21:01 63.1 °F /  17.3 °C 46.8 °F /  8.2 °C 30.1in /  1020.0hPa West 0.9mph /  1.4km/h 4mph /  6.4km/h 55% 0in /  0.0mm 7 W/m2
21:06 62.8 °F /  17.1 °C 46.9 °F /  8.3 °C 30.1in /  1020.3hPa West 2.9mph /  4.7km/h 4mph /  6.4km/h 56% 0in /  0.0mm 5 W/m2
21:11 62.6 °F /  17 °C 47.1 °F /  8.4 °C 30.1in /  1020.3hPa West 0.9mph /  1.4km/h 3mph /  4.8km/h 57% 0in /  0.0mm 0 W/m2
21:16 62.2 °F /  16.8 °C 46.8 °F /  8.2 °C 30.1in /  1020.3hPa West 0.9mph /  1.4km/h 2mph /  3.2km/h 57% 0in /  0.0mm 0 W/m2
21:22 62.1 °F /  16.7 °C 47.1 °F /  8.4 °C 30.1in /  1020.3hPa Calm   1mph /  1.6km/h 58% 0in /  0.0mm 0 W/m2
21:27 61.9 °F /  16.6 °C 46.9 °F /  8.3 °C 30.1in /  1020.3hPa West 0.9mph /  1.4km/h 1mph /  1.6km/h 58% 0in /  0.0mm 0 W/m2
21:32 61.3 °F /  16.3 °C 46.9 °F /  8.3 °C 30.1in /  1020.3hPa West 0.9mph /  1.4km/h 2mph /  3.2km/h 59% 0in /  0.0mm 0 W/m2
21:37 61 °F /  16.1 °C 46.9 °F /  8.3 °C 30.1in /  1020.3hPa Calm   2mph /  3.2km/h 60% 0in /  0.0mm 0 W/m2
21:42 60.6 °F /  15.9 °C 46.6 °F /  8.1 °C 30.1in /  1020.3hPa West 0.9mph /  1.4km/h 2mph /  3.2km/h 60% 0in /  0.0mm 0 W/m2
21:47 60.4 °F /  15.8 °C 46.9 °F /  8.3 °C 30.1in /  1020.3hPa Calm   2mph /  3.2km/h 61% 0in /  0.0mm 0 W/m2
21:52 60.1 °F /  15.6 °C 46.6 °F /  8.1 °C 30.1in /  1020.3hPa West 2.9mph /  4.7km/h 3mph /  4.8km/h 61% 0in /  0.0mm 0 W/m2
21:57 59.7 °F /  15.4 °C 46.8 °F /  8.2 °C 30.1in /  1020.3hPa West 0.9mph /  1.4km/h 2mph /  3.2km/h 62% 0in /  0.0mm 0 W/m2
22:02 59.7 °F /  15.4 °C 47.1 °F /  8.4 °C 30.1in /  1020.7hPa Calm   1mph /  1.6km/h 63% 0in /  0.0mm 0 W/m2
22:07 59.4 °F /  15.2 °C 46.8 °F /  8.2 °C 30.1in /  1020.7hPa Calm     63% 0in /  0.0mm 0 W/m2
22:12 59.2 °F /  15.1 °C 46.9 °F /  8.3 °C 30.1in /  1020.7hPa Calm     64% 0in /  0.0mm 0 W/m2
22:17 58.8 °F /  14.9 °C 46.6 °F /  8.1 °C 30.1in /  1020.7hPa Calm     64% 0in /  0.0mm 0 W/m2
22:22 58.5 °F /  14.7 °C 47.1 °F /  8.4 °C 30.1in /  1020.7hPa Calm     66% 0in /  0.0mm 0 W/m2
22:27 58.1 °F /  14.5 °C 46.8 °F /  8.2 °C 30.1in /  1020.7hPa Calm     66% 0in /  0.0mm 0 W/m2
22:32 57.9 °F /  14.4 °C 46.9 °F /  8.3 °C 30.1in /  1020.7hPa Calm     67% 0in /  0.0mm 0 W/m2
22:37 57.6 °F /  14.2 °C 46.8 °F /  8.2 °C 30.1in /  1020.7hPa Calm     67% 0in /  0.0mm 0 W/m2
22:42 57.2 °F /  14 °C 46.8 °F /  8.2 °C 30.1in /  1020.7hPa Calm     68% 0in /  0.0mm 0 W/m2
22:47 57 °F /  13.9 °C 46.6 °F /  8.1 °C 30.1in /  1020.7hPa Calm     68% 0in /  0.0mm 0 W/m2
22:52 56.8 °F /  13.8 °C 46.4 °F /  8 °C 30.1in /  1020.7hPa Calm     68% 0in /  0.0mm 0 W/m2
22:57 56.7 °F /  13.7 °C 46.6 °F /  8.1 °C 30.1in /  1020.7hPa Calm     69% 0in /  0.0mm 0 W/m2
23:02 56.5 °F /  13.6 °C 46.4 °F /  8 °C 30.1in /  1020.7hPa Calm     69% 0in /  0.0mm 0 W/m2
23:07 56.3 °F /  13.5 °C 46.2 °F /  7.9 °C 30.1in /  1020.7hPa Calm     69% 0in /  0.0mm 0 W/m2
23:12 56.1 °F /  13.4 °C 46.4 °F /  8 °C 30.1in /  1020.7hPa Calm   1mph /  1.6km/h 70% 0in /  0.0mm 0 W/m2
23:17 55.9 °F /  13.3 °C 46.2 °F /  7.9 °C 30.1in /  1020.7hPa Calm   1mph /  1.6km/h 70% 0in /  0.0mm 0 W/m2
23:22 55.8 °F /  13.2 °C 46 °F /  7.8 °C 30.1in /  1020.7hPa Calm     70% 0in /  0.0mm 0 W/m2
23:27 55.8 °F /  13.2 °C 46.6 °F /  8.1 °C 30.1in /  1020.7hPa Calm     71% 0in /  0.0mm 0 W/m2
23:32 55.4 °F /  13 °C 46.2 °F /  7.9 °C 30.1in /  1020.7hPa Calm     71% 0in /  0.0mm 0 W/m2
23:37 55.2 °F /  12.9 °C 46 °F /  7.8 °C 30.1in /  1020.7hPa Calm     71% 0in /  0.0mm 0 W/m2
23:42 55 °F /  12.8 °C 46.2 °F /  7.9 °C 30.1in /  1020.7hPa Calm   1mph /  1.6km/h 72% 0in /  0.0mm 0 W/m2
23:52 54.7 °F /  12.6 °C 45.9 °F /  7.7 °C 30.1in /  1020.7hPa Calm   1mph /  1.6km/h 72% 0in /  0.0mm 0 W/m2
23:57 54.3 °F /  12.4 °C 45.9 °F /  7.7 °C 30.1in /  1020.7hPa Calm     73% 0in /  0.0mm 0 W/m2
Juneau County Weather
Compliments of Weather Underground - 4 mb